Flight Track Log - Related Links

Times and Time Zones

All times are in EDT time to prevent confusion due to time zone crossing. See the EJA982 flight status page for this flight to view local times or setup timezone preferences in your user account.

Time Position Orientation Groundspeed Altitude Reporting Facility
EDT Latitude Longitude Course Direction KTS MPH feet Rate Location/Type
Sun 07:14:45 PM 43.6333 -79.6333 194° South 180 207 3,600  Level Toronto Center
Sun 07:15:45 PM 43.5833 -79.6833 216° Southwest 230 265 6,200 2,200 Climbing Toronto Center
Sun 07:16:45 PM 43.5333 -79.7500 224° Southwest 250 288 8,000 2,500 Climbing Toronto Center
Sun 07:17:45 PM 43.4500 -79.7500 180° South 270 311 11,200 2,800 Climbing Toronto Center
Sun 07:18:45 PM 43.3667 -79.7500 180° South 310 357 13,600 2,300 Climbing Toronto Center
Sun 07:19:45 PM 43.2833 -79.7500 180° South 340 391 15,800 2,200 Climbing Toronto Center
Sun 07:20:00 PM 42.8727 -79.7702 194° South  Level FlightAware Approximate
Sun 07:20:45 PM 43.1833 -79.7500 180° South 360 414 18,000  Level Toronto Center
Sun 07:21:45 PM 43.0833 -79.7500 180° South 360 414 20,400 2,350 Climbing Toronto Center
Sun 07:22:45 PM 42.9833 -79.7500 180° South 370 426 22,700 1,300 Climbing Toronto Center
Sun 07:23:45 PM 42.8667 -79.7667 186° South 390 449 23,000 600 Climbing Toronto Center
Sun 07:24:45 PM 42.7681 -79.8083 197° South 398 458 23,900 1,800 Climbing Cleveland Center
Sun 07:25:45 PM 42.6600 -79.8294 188° South 408 470 26,600 2,500 Climbing Cleveland Center
Sun 07:26:45 PM 42.5539 -79.8531 189° South 408 470 28,900 1,500 Climbing Cleveland Center
Sun 07:27:45 PM 42.4456 -79.8769 189° South 394 453 29,600 800 Climbing Cleveland Center
Sun 07:28:45 PM 42.3353 -79.8978 188° South 404 465 30,500 900 Climbing Cleveland Center
Sun 07:29:45 PM 42.2208 -79.9244 190° South 412 474 31,400 1,450 Climbing Cleveland Center
Sun 07:30:45 PM 42.1186 -79.9478 190° South 418 481 33,400 1,300 Climbing Cleveland Center
Sun 07:31:45 PM 42.0083 -79.9711 189° South 413 475 34,000 300 Climbing Cleveland Center
Sun 07:32:45 PM 41.8772 -79.9947 188° South 419 482 34,000  Level Cleveland Center
Sun 07:33:45 PM 41.7544 -80.0208 189° South 446 513 34,000 450 Level Cleveland Center
Sun 07:34:45 PM 41.6419 -80.0414 188° South 456 525 34,900 1,000 Climbing Cleveland Center
Sun 07:35:45 PM 41.5211 -80.0700 190° South 451 519 36,000 700 Climbing Cleveland Center
Sun 07:36:45 PM 41.3983 -80.0933 188° South 446 513 36,300 750 Climbing Cleveland Center
Sun 07:37:45 PM 41.2794 -80.1189 189° South 446 513 37,500 1,250 Climbing Cleveland Center
Sun 07:38:45 PM 41.1650 -80.1419 189° South 440 506 38,800 850 Climbing Cleveland Center
Sun 07:39:45 PM 41.0525 -80.1647 189° South 426 490 39,200 550 Climbing Cleveland Center
Sun 07:40:45 PM 40.9378 -80.1900 189° South 426 490 39,900 700 Climbing Cleveland Center
Sun 07:41:45 PM 40.8211 -80.2128 188° South 426 490 40,600 500 Climbing Cleveland Center
Sun 07:42:45 PM 40.6897 -80.2053 178° South 426 490 40,900 550 Climbing Cleveland Center
Sun 07:43:45 PM 40.5731 -80.1978 177° South 421 484 41,700 450 Climbing Cleveland Center
Sun 07:44:45 PM 40.4542 -80.1875 176° South 421 484 41,800 200 Climbing Cleveland Center
Sun 07:45:45 PM 40.3311 -80.1800 177° South 426 490 42,100 300 Climbing Cleveland Center
Sun 07:46:45 PM 40.2103 -80.1725 177° South 431 496 42,400 350 Climbing Cleveland Center
Sun 07:47:45 PM 40.0914 -80.1625 176° South 437 503 42,800 300 Climbing Cleveland Center
Sun 07:48:45 PM 39.9706 -80.1550 177° South 437 503 43,000 -341 Climbing Cleveland Center
Sun 07:51:16 PM 39.6739 -80.1344 177° South 468 539 41,600 -574 Descending Washington Center
Sun 07:52:14 PM 39.5389 -80.1261 177° South 475 547 41,000 -303 Descending Washington Center
Sun 07:53:15 PM 39.4056 -80.1175 177° South 475 547 41,000  Level Washington Center
Sun 07:54:15 PM 39.2767 -80.1097 177° South 475 547 41,000  Level Washington Center
Sun 07:55:14 PM 39.1458 -80.1014 177° South 470 541 41,000  Level Washington Center
Sun 07:56:16 PM 39.0156 -80.1228 187° South 470 541 41,000  Level Washington Center
Sun 07:57:16 PM 38.8917 -80.1472 189° South 470 541 41,000  Level Washington Center
Sun 07:58:16 PM 38.7489 -80.1731 188° South 470 541 41,000  Level Washington Center
Sun 07:59:15 PM 38.6231 -80.1969 188° South 470 541 41,000  Level Washington Center
Sun 08:00:15 PM 38.4947 -80.2236 189° South 470 541 41,000  Level Washington Center
Sun 08:01:15 PM 38.3897 -80.2433 188° South 470 541 41,000  Level Washington Center
Sun 08:02:14 PM 38.2511 -80.2692 188° South 470 541 41,000  Level Washington Center
Sun 08:03:15 PM 38.1228 -80.2956 189° South 470 541 41,000  Level Washington Center
Sun 08:04:15 PM 37.9925 -80.3189 188° South 470 541 41,000  Level Washington Center
Sun 08:05:14 PM 37.8497 -80.3442 188° South 470 541 41,000  Level Washington Center
Sun 08:06:15 PM 37.7233 -80.3703 189° South 470 541 41,000  Level Washington Center
Sun 08:08:06 PM 37.4933 -80.4086 188° South 471 542 41,000  Level Atlanta Center
Sun 08:09:06 PM 37.3483 -80.4364 189° South 471 542 41,000  Level Atlanta Center
Sun 08:10:06 PM 37.2197 -80.4606 189° South 471 542 41,000  Level Atlanta Center
Sun 08:11:06 PM 37.0911 -80.4844 188° South 471 542 41,000  Level Atlanta Center
Sun 08:12:06 PM 36.9708 -80.5056 188° South 478 550 41,000  Level Atlanta Center
Sun 08:13:06 PM 36.8403 -80.5294 188° South 478 550 41,000  Level Atlanta Center
Sun 08:14:06 PM 36.7075 -80.5536 188° South 483 556 41,000  Level Atlanta Center
Sun 08:15:06 PM 36.5786 -80.5719 187° South 478 550 41,000  Level Atlanta Center
Sun 08:16:06 PM 36.4481 -80.5958 188° South 478 550 41,000  Level Atlanta Center
Sun 08:17:06 PM 36.3172 -80.6194 188° South 484 557 41,000  Level Atlanta Center
Sun 08:18:06 PM 36.1867 -80.6456 189° South 479 551 41,000  Level Atlanta Center
Sun 08:19:06 PM 36.0517 -80.6692 188° South 485 558 41,000  Level Atlanta Center
Sun 08:20:06 PM 35.9022 -80.6933 187° South 490 564 41,000  Level Atlanta Center
Sun 08:21:06 PM 35.7694 -80.7217 190° South 490 564 41,000  Level Atlanta Center
Sun 08:22:06 PM 35.6322 -80.7428 187° South 495 570 41,000  Level Atlanta Center
Sun 08:23:06 PM 35.4931 -80.7686 189° South 501 577 41,000  Level Atlanta Center
Sun 08:24:06 PM 35.3603 -80.7944 189° South 496 571 41,000  Level Atlanta Center
Sun 08:25:06 PM 35.2336 -80.8172 188° South 501 577 41,000  Level Atlanta Center
Sun 08:26:06 PM 35.0967 -80.8428 189° South 501 577 41,000 -450 Level Atlanta Center
Sun 08:27:06 PM 34.9594 -80.8658 188° South 501 577 40,100 -1,015 Descending Atlanta Center
Sun 08:29:21 PM 34.6347 -80.9269 189° South 494 568 37,700 -1,046 Descending Jacksonville Center
Sun 08:30:21 PM 34.4953 -80.9503 188° South 505 581 36,700 -850 Descending Jacksonville Center
Sun 08:31:21 PM 34.3606 -81.0086 200° South 505 581 36,000 -350 Descending Jacksonville Center
Sun 08:32:21 PM 34.2342 -81.0617 199° South 509 586 36,000 -500 Level Jacksonville Center
Sun 08:33:21 PM 34.0953 -81.1222 200° South 509 586 35,000 -1,000 Descending Jacksonville Center
Sun 08:34:21 PM 33.9542 -81.1775 198° South 527 606 34,000 -496 Descending Jacksonville Center
Sun 08:35:22 PM 33.8150 -81.2278 197° South 527 606 34,000 -550 Level Jacksonville Center
Sun 08:36:21 PM 33.6647 -81.2331 182° South 527 606 32,900 -1,613 Descending Jacksonville Center
Sun 08:37:21 PM 33.5125 -81.2311 179° South 532 612 30,800 -2,550 Descending Jacksonville Center
Sun 08:38:21 PM 33.3642 -81.2264 178° South 538 619 27,800 -3,200 Descending Jacksonville Center
Sun 08:39:21 PM 33.2222 -81.2214 178° South 538 619 24,400 -3,350 Descending Jacksonville Center
Sun 08:40:21 PM 33.0886 -81.2214 180° South 502 578 21,100 -3,300 Descending Jacksonville Center
Sun 08:41:21 PM 32.9592 -81.2164 178° South 484 557 17,800 -3,250 Descending Jacksonville Center
Sun 08:42:21 PM 32.8358 -81.2139 179° South 465 535 14,600 -3,150 Descending Jacksonville Center
Sun 08:43:21 PM 32.7211 -81.2111 179° South 441 507 11,500 -2,100 Descending Jacksonville Center
Sun 08:44:21 PM 32.6314 -81.2103 180° South 378 435 10,400 -1,750 Descending Jacksonville Center
Sun 08:45:21 PM 32.5478 -81.2117 181° South 308 354 8,000 -2,050 Descending Jacksonville Center
Sun 08:46:21 PM 32.4686 -81.2083 178° South 290 334 6,300 -1,750 Descending Jacksonville Center
Sun 08:47:21 PM 32.3850 -81.2075 180° South 278 320 4,500 -1,650 Descending Jacksonville Center
Sun 08:48:21 PM 32.3161 -81.2061 179° South 267 307 3,000 -1,250 Descending Jacksonville Center
Sun 08:49:21 PM 32.2556 -81.2025 177° South 242 278 2,000 -645 Descending Jacksonville Center
Sun 08:50:22 PM 32.2136 -81.2031 181° South 188 216 1,700 -600 Descending Jacksonville Center
Sun 08:51:21 PM 32.1742 -81.2064 184° South 149 171 800 -915 Descending Jacksonville Center
Sun 08:53:00 PM 32.1276 -81.2021 180° South  Level Estimated
Sun 09:00:00 PM 32.1276 -81.2021 180° South  Level Estimated
Sun 09:01:00 PM 32.1276 -81.2021 180° South  Level Estimated

Login

Don't have an account? Register now (free) for customized features, flight alerts, and more!